Time;durP1;ratioP1;P1;durP2;ratioP2;P2;SDS_P1;SDS_P2;PMS_P1;PMS_P2;Temp;Humidity;BMP_temperature;BMP_pressure;BME280_temperature;BME280_humidity;BME280_pressure;Samples;Min_cycle;Max_cycle;Signal;HPM_P1;HPM_P2
2023/11/04 00:01:23;;;;;;;4.17;0.90;;;;;;;;;;5060041;28;20558;-88
2023/11/04 00:03:49;;;;;;;3.80;0.80;;;;;;;;;;5062558;28;20793;-91
2023/11/04 00:06:15;;;;;;;5.70;0.90;;;;;;;;;;5058104;28;20564;-90
2023/11/04 00:08:41;;;;;;;9.03;1.70;;;;;;;;;;5062352;28;20989;-90
2023/11/04 00:11:07;;;;;;;6.80;0.90;;;;;;;;;;5064593;28;20442;-89
2023/11/04 00:13:33;;;;;;;6.87;1.47;;;;;;;;;;5063048;28;20433;-90
2023/11/04 00:15:59;;;;;;;6.83;1.10;;;;;;;;;;5060422;28;20940;-87
2023/11/04 00:18:24;;;;;;;6.83;0.77;;;;;;;;;;5060660;28;20447;-87
2023/11/04 00:20:50;;;;;;;7.00;1.03;;;;;;;;;;5060312;28;20435;-89
2023/11/04 00:23:16;;;;;;;3.97;0.73;;;;;;;;;;5064196;28;20536;-88
2023/11/04 00:25:44;;;;;;;5.90;1.03;;;;;;;;;;5062362;28;20427;-89
2023/11/04 00:28:10;;;;;;;5.30;1.03;;;;;;;;;;5062348;28;20180;-88
2023/11/04 00:30:36;;;;;;;4.83;0.93;;;;;;;;;;5061961;28;20440;-88
2023/11/04 00:33:02;;;;;;;6.00;0.93;;;;;;;;;;5064021;28;20466;-88
2023/11/04 00:35:28;;;;;;;7.57;1.50;;;;;;;;;;5060540;28;20424;-89
2023/11/04 00:37:54;;;;;;;3.90;0.40;;;;;;;;;;5062244;28;20840;-89
2023/11/04 00:40:20;;;;;;;4.60;0.80;;;;;;;;;;5061627;28;20434;-89
2023/11/04 00:42:46;;;;;;;6.40;0.70;;;;;;;;;;5059704;28;20919;-88
2023/11/04 00:45:12;;;;;;;1.87;0.70;;;;;;;;;;5063201;28;20867;-90
2023/11/04 00:47:38;;;;;;;3.60;0.83;;;;;;;;;;5065147;28;20527;-88
2023/11/04 00:50:05;;;;;;;3.40;0.60;;;;;;;;;;5061807;28;21024;-89
2023/11/04 00:52:32;;;;;;;4.67;0.80;;;;;;;;;;5061325;28;20780;-89
2023/11/04 00:54:57;;;;;;;5.30;1.20;;;;;;;;;;5056703;28;20478;-89
2023/11/04 00:57:23;;;;;;;8.20;0.80;;;;;;;;;;5064572;28;20491;-88
2023/11/04 00:59:49;;;;;;;10.73;1.07;;;;;;;;;;5060843;28;20485;-88
2023/11/04 01:02:15;;;;;;;4.30;1.23;;;;;;;;;;5060833;28;20509;-88
2023/11/04 01:04:41;;;;;;;4.60;0.93;;;;;;;;;;5060518;28;21077;-88
2023/11/04 01:07:07;;;;;;;2.00;0.67;;;;;;;;;;5059719;28;20479;-88
2023/11/04 01:09:33;;;;;;;4.43;0.90;;;;;;;;;;5059180;28;20825;-87
2023/11/04 01:11:59;;;;;;;6.90;1.10;;;;;;;;;;5058431;28;20455;-89
2023/11/04 01:14:25;;;;;;;5.87;1.00;;;;;;;;;;5066872;28;20533;-87
2023/11/04 01:16:51;;;;;;;3.60;1.00;;;;;;;;;;5059813;28;20499;-87
2023/11/04 01:19:17;;;;;;;5.10;1.23;;;;;;;;;;5057802;28;20433;-88
2023/11/04 01:21:43;;;;;;;6.00;0.90;;;;;;;;;;5061300;28;20475;-88
2023/11/04 01:24:09;;;;;;;4.93;0.70;;;;;;;;;;5060062;28;20795;-87
2023/11/04 01:26:35;;;;;;;9.80;1.23;;;;;;;;;;5058780;28;20428;-88
2023/11/04 01:29:01;;;;;;;3.70;0.83;;;;;;;;;;5060481;28;20546;-87
2023/11/04 01:31:26;;;;;;;4.40;1.10;;;;;;;;;;5058911;28;20182;-87
2023/11/04 01:33:52;;;;;;;4.10;0.40;;;;;;;;;;5082791;28;20821;-87
2023/11/04 01:36:18;;;;;;;8.57;1.23;;;;;;;;;;5060320;28;20439;-88
2023/11/04 01:38:44;;;;;;;4.57;1.17;;;;;;;;;;5064563;28;20438;-87
2023/11/04 01:41:10;;;;;;;5.20;1.10;;;;;;;;;;5061572;28;20439;-87
2023/11/04 01:43:36;;;;;;;4.30;0.90;;;;;;;;;;5059154;28;20218;-87
2023/11/04 01:46:11;;;;;;;5.27;2.13;;;;;;;;;;5058346;28;20470;-88
2023/11/04 01:48:37;;;;;;;5.40;0.73;;;;;;;;;;5059441;28;20781;-87
2023/11/04 01:51:04;;;;;;;6.87;1.00;;;;;;;;;;5067888;28;20548;-87
2023/11/04 01:53:30;;;;;;;4.20;0.43;;;;;;;;;;5061997;28;20442;-88
2023/11/04 01:55:56;;;;;;;4.43;0.90;;;;;;;;;;5061988;28;20934;-87
2023/11/04 01:58:22;;;;;;;6.13;1.03;;;;;;;;;;5059077;28;20568;-88
2023/11/04 02:00:49;;;;;;;4.87;1.13;;;;;;;;;;5058088;28;20435;-89
2023/11/04 02:03:16;;;;;;;2.13;0.60;;;;;;;;;;5052518;28;20497;-87
2023/11/04 02:05:43;;;;;;;3.30;0.93;;;;;;;;;;5052125;28;20409;-87
2023/11/04 02:08:09;;;;;;;4.67;1.03;;;;;;;;;;5052998;28;20454;-90
2023/11/04 02:10:35;;;;;;;9.40;1.33;;;;;;;;;;5053518;28;20415;-88
2023/11/04 02:13:02;;;;;;;10.03;1.50;;;;;;;;;;5052332;28;20421;-88
2023/11/04 02:15:29;;;;;;;7.30;1.57;;;;;;;;;;5052554;28;20419;-91
2023/11/04 02:17:55;;;;;;;10.30;2.30;;;;;;;;;;5054981;28;20439;-92
2023/11/04 02:20:23;;;;;;;5.50;1.27;;;;;;;;;;5054284;28;20807;-89
2023/11/04 02:22:49;;;;;;;4.53;0.77;;;;;;;;;;5053804;28;20982;-88
2023/11/04 02:25:18;;;;;;;4.37;1.40;;;;;;;;;;5052780;28;20413;-87
2023/11/04 02:27:44;;;;;;;9.13;1.13;;;;;;;;;;5053278;28;20750;-87
2023/11/04 02:30:13;;;;;;;5.47;0.73;;;;;;;;;;5053698;28;20468;-89
2023/11/04 02:32:39;;;;;;;7.13;0.77;;;;;;;;;;5053749;28;20415;-88
2023/11/04 02:35:05;;;;;;;6.80;0.83;;;;;;;;;;5053823;28;20887;-89
2023/11/04 02:37:31;;;;;;;6.83;1.50;;;;;;;;;;5054282;28;20434;-89
2023/11/04 02:39:57;;;;;;;2.93;1.03;;;;;;;;;;5053906;28;20510;-89
2023/11/04 02:42:23;;;;;;;3.73;0.50;;;;;;;;;;5053503;28;20557;-91
2023/11/04 02:44:49;;;;;;;4.67;1.30;;;;;;;;;;5053962;28;20412;-90
2023/11/04 02:47:15;;;;;;;5.43;1.00;;;;;;;;;;5053794;28;20423;-90
2023/11/04 02:49:41;;;;;;;2.77;1.13;;;;;;;;;;5052220;28;20421;-89
2023/11/04 02:52:07;;;;;;;5.80;0.53;;;;;;;;;;5053707;28;20914;-90
2023/11/04 02:54:33;;;;;;;4.70;0.67;;;;;;;;;;5053874;28;20415;-91
2023/11/04 02:56:59;;;;;;;3.90;0.90;;;;;;;;;;5052321;28;20426;-90
2023/11/04 02:59:27;;;;;;;4.50;0.87;;;;;;;;;;5053838;28;20418;-89
2023/11/04 03:01:53;;;;;;;3.13;0.50;;;;;;;;;;5065159;28;20473;-91
2023/11/04 03:04:19;;;;;;;8.17;0.90;;;;;;;;;;5073065;28;20475;-91
2023/11/04 03:06:45;;;;;;;2.27;1.00;;;;;;;;;;5072826;28;20495;-91
2023/11/04 03:09:11;;;;;;;4.40;1.00;;;;;;;;;;5073720;28;20417;-90
2023/11/04 03:11:37;;;;;;;2.67;0.87;;;;;;;;;;5073179;28;20409;-88
2023/11/04 03:14:03;;;;;;;3.47;0.20;;;;;;;;;;5071784;28;20767;-89
2023/11/04 03:16:29;;;;;;;4.40;0.67;;;;;;;;;;5073211;28;20489;-90
2023/11/04 03:18:55;;;;;;;1.90;0.90;;;;;;;;;;5072079;28;20413;-89
2023/11/04 03:21:21;;;;;;;7.60;0.80;;;;;;;;;;5072116;28;20423;-89
2023/11/04 03:23:47;;;;;;;3.07;1.03;;;;;;;;;;5074574;28;20964;-90
2023/11/04 03:26:13;;;;;;;3.00;0.57;;;;;;;;;;5076759;28;20482;-89
2023/11/04 03:28:39;;;;;;;5.10;1.50;;;;;;;;;;5077151;28;20437;-90
2023/11/04 03:31:05;;;;;;;5.27;0.70;;;;;;;;;;5077145;28;20412;-90
2023/11/04 03:33:32;;;;;;;5.53;1.80;;;;;;;;;;5076641;28;20404;-91
2023/11/04 03:35:57;;;;;;;1.97;0.53;;;;;;;;;;5077787;28;20425;-92
2023/11/04 03:38:23;;;;;;;11.63;0.90;;;;;;;;;;5077540;28;20936;-91
2023/11/04 03:40:49;;;;;;;4.80;1.47;;;;;;;;;;5077346;28;20411;-91
2023/11/04 03:43:15;;;;;;;2.53;0.33;;;;;;;;;;5077528;28;20461;-92
2023/11/04 03:45:41;;;;;;;3.17;0.50;;;;;;;;;;5077469;28;20403;-90
2023/11/04 03:48:07;;;;;;;4.27;0.60;;;;;;;;;;5077277;28;20420;-90
2023/11/04 03:50:33;;;;;;;3.13;0.53;;;;;;;;;;5077036;28;20825;-89
2023/11/04 03:52:59;;;;;;;1.90;0.27;;;;;;;;;;5077029;28;20902;-89
2023/11/04 03:55:25;;;;;;;6.30;1.20;;;;;;;;;;5075252;28;20464;-88
2023/11/04 03:57:52;;;;;;;3.40;0.40;;;;;;;;;;5077034;28;20423;-89
2023/11/04 04:00:19;;;;;;;2.77;0.60;;;;;;;;;;5076727;28;20501;-90
2023/11/04 04:02:45;;;;;;;3.97;1.03;;;;;;;;;;5075420;28;20484;-90
2023/11/04 04:05:11;;;;;;;2.43;0.80;;;;;;;;;;5075744;28;20414;-89
2023/11/04 04:07:37;;;;;;;2.37;0.60;;;;;;;;;;5076661;28;20960;-89
2023/11/04 04:10:03;;;;;;;2.63;0.50;;;;;;;;;;5075466;28;20512;-89
2023/11/04 04:12:29;;;;;;;8.43;0.53;;;;;;;;;;5074702;28;20426;-90
2023/11/04 04:14:54;;;;;;;2.63;0.63;;;;;;;;;;5076482;28;20467;-88
2023/11/04 04:17:20;;;;;;;3.67;0.97;;;;;;;;;;5077103;28;20414;-89
2023/11/04 04:19:47;;;;;;;2.73;0.40;;;;;;;;;;5075209;28;20468;-87
2023/11/04 04:22:13;;;;;;;3.43;0.60;;;;;;;;;;5076314;28;20472;-87
2023/11/04 04:24:39;;;;;;;1.10;0.43;;;;;;;;;;5076041;28;20422;-86
2023/11/04 04:27:05;;;;;;;4.73;0.80;;;;;;;;;;5075043;28;20419;-87
2023/11/04 04:29:31;;;;;;;2.20;0.83;;;;;;;;;;5063276;28;20983;-87
2023/11/04 04:31:58;;;;;;;5.60;0.47;;;;;;;;;;5056060;28;20824;-87
2023/11/04 04:34:24;;;;;;;3.87;0.50;;;;;;;;;;5054762;28;20409;-86
2023/11/04 04:36:49;;;;;;;1.90;0.77;;;;;;;;;;5055091;28;20499;-86
2023/11/04 04:39:16;;;;;;;3.37;0.60;;;;;;;;;;5055126;28;20424;-86
2023/11/04 04:41:42;;;;;;;3.60;0.70;;;;;;;;;;5053363;28;20430;-86
2023/11/04 04:44:08;;;;;;;5.00;0.93;;;;;;;;;;5073799;28;20506;-86
2023/11/04 04:46:38;;;;;;;1.43;0.50;;;;;;;;;;5073724;28;20424;-87
2023/11/04 04:49:04;;;;;;;4.30;0.63;;;;;;;;;;5074898;28;20414;-87
2023/11/04 04:51:30;;;;;;;3.77;0.60;;;;;;;;;;5073708;28;20432;-87
2023/11/04 04:53:55;;;;;;;1.87;0.67;;;;;;;;;;5073783;28;20422;-88
2023/11/04 04:56:23;;;;;;;4.73;0.50;;;;;;;;;;5073422;28;20427;-87
2023/11/04 04:58:48;;;;;;;1.23;0.40;;;;;;;;;;5073645;28;20429;-87
2023/11/04 05:01:20;;;;;;;4.17;1.17;;;;;;;;;;5074663;28;20417;-87
2023/11/04 05:03:46;;;;;;;4.83;0.87;;;;;;;;;;5074338;28;20559;-87
2023/11/04 05:06:12;;;;;;;3.00;0.50;;;;;;;;;;5074686;28;20825;-88
2023/11/04 05:08:38;;;;;;;4.07;0.87;;;;;;;;;;5073556;28;20405;-86
2023/11/04 05:11:05;;;;;;;5.10;0.70;;;;;;;;;;5072878;28;20763;-86
2023/11/04 05:13:31;;;;;;;3.33;0.93;;;;;;;;;;5073249;28;20428;-87
2023/11/04 05:15:57;;;;;;;4.73;0.60;;;;;;;;;;5073335;28;20933;-87
2023/11/04 05:18:23;;;;;;;1.37;0.40;;;;;;;;;;5074630;28;20396;-87
2023/11/04 05:20:49;;;;;;;5.70;0.47;;;;;;;;;;5073429;28;20422;-87
2023/11/04 05:23:16;;;;;;;5.03;0.83;;;;;;;;;;5073947;28;20558;-88
2023/11/04 05:25:42;;;;;;;4.37;0.73;;;;;;;;;;5072621;28;20450;-87
2023/11/04 05:28:09;;;;;;;4.07;0.50;;;;;;;;;;5074330;28;20768;-87
2023/11/04 05:30:38;;;;;;;1.47;0.40;;;;;;;;;;5074143;28;20743;-86
2023/11/04 05:33:04;;;;;;;2.40;0.50;;;;;;;;;;5074032;28;20445;-86
2023/11/04 05:35:30;;;;;;;2.90;0.30;;;;;;;;;;5074154;28;20940;-86
2023/11/04 05:37:56;;;;;;;5.63;1.33;;;;;;;;;;5074018;28;20417;-87
2023/11/04 05:40:22;;;;;;;4.90;0.70;;;;;;;;;;5073745;28;20423;-87
2023/11/04 05:42:48;;;;;;;4.80;0.53;;;;;;;;;;5073858;28;20475;-87
2023/11/04 05:45:14;;;;;;;6.50;1.77;;;;;;;;;;5073984;28;20461;-86
2023/11/04 05:47:41;;;;;;;4.37;1.00;;;;;;;;;;5071856;28;20432;-87
2023/11/04 05:50:07;;;;;;;2.83;0.30;;;;;;;;;;5073950;28;20412;-87
2023/11/04 05:52:32;;;;;;;6.00;0.67;;;;;;;;;;5073623;28;20428;-87
2023/11/04 05:54:58;;;;;;;4.57;0.60;;;;;;;;;;5073336;28;20405;-86
2023/11/04 05:57:24;;;;;;;1.30;0.47;;;;;;;;;;5073673;28;20458;-91
2023/11/04 05:59:50;;;;;;;3.93;0.73;;;;;;;;;;5073776;28;20453;-87
2023/11/04 06:02:16;;;;;;;4.40;0.53;;;;;;;;;;5073248;28;20475;-87
2023/11/04 06:04:42;;;;;;;3.70;1.13;;;;;;;;;;5073542;28;20420;-86
2023/11/04 06:07:08;;;;;;;2.67;0.80;;;;;;;;;;5072330;28;20777;-85
2023/11/04 06:09:34;;;;;;;2.73;0.40;;;;;;;;;;5072147;28;20447;-85
2023/11/04 06:12:00;;;;;;;1.47;0.80;;;;;;;;;;5072950;28;20418;-87
2023/11/04 06:14:28;;;;;;;7.17;0.70;;;;;;;;;;5072329;28;20897;-86
2023/11/04 06:16:54;;;;;;;2.57;0.80;;;;;;;;;;5073599;28;20506;-89
2023/11/04 06:19:20;;;;;;;2.20;0.70;;;;;;;;;;5072330;28;20420;-88
2023/11/04 06:21:46;;;;;;;7.00;1.17;;;;;;;;;;5073583;28;20557;-88
2023/11/04 06:24:12;;;;;;;4.20;1.00;;;;;;;;;;5073532;28;20502;-87
2023/11/04 06:26:38;;;;;;;3.40;0.60;;;;;;;;;;5072949;28;20453;-87
2023/11/04 06:29:04;;;;;;;1.43;0.60;;;;;;;;;;5073331;28;20423;-87
2023/11/04 06:31:31;;;;;;;1.20;0.30;;;;;;;;;;5072181;28;20448;-86
2023/11/04 06:33:57;;;;;;;1.77;1.00;;;;;;;;;;5073276;28;20939;-86
2023/11/04 06:36:24;;;;;;;1.90;0.73;;;;;;;;;;5072968;28;20771;-86
2023/11/04 06:38:49;;;;;;;2.10;0.50;;;;;;;;;;5073133;28;20405;-85
2023/11/04 06:41:16;;;;;;;2.83;0.57;;;;;;;;;;5071800;28;20422;-87
2023/11/04 06:43:44;;;;;;;1.80;0.60;;;;;;;;;;5072083;28;20508;-87
2023/11/04 06:46:10;;;;;;;0.93;0.30;;;;;;;;;;5073205;28;20415;-88
2023/11/04 06:48:36;;;;;;;4.47;0.83;;;;;;;;;;5079422;28;20428;-86
2023/11/04 06:51:02;;;;;;;4.23;0.40;;;;;;;;;;5079578;28;20441;-86
2023/11/04 06:53:28;;;;;;;1.50;0.33;;;;;;;;;;5074913;28;20423;-85
2023/11/04 06:55:58;;;;;;;2.20;0.40;;;;;;;;;;5075809;28;20415;-88
2023/11/04 06:58:27;;;;;;;4.53;0.70;;;;;;;;;;5072017;28;20423;-88
2023/11/04 07:00:53;;;;;;;2.67;0.60;;;;;;;;;;5073012;28;20412;-86
2023/11/04 07:03:19;;;;;;;1.87;0.70;;;;;;;;;;5072961;28;20482;-87
2023/11/04 07:05:45;;;;;;;1.80;0.40;;;;;;;;;;5073261;28;20408;-89
2023/11/04 07:08:14;;;;;;;2.63;0.30;;;;;;;;;;5073063;28;20418;-85
2023/11/04 07:10:40;;;;;;;2.13;0.50;;;;;;;;;;5072834;28;20506;-88
2023/11/04 07:13:12;;;;;;;4.63;0.97;;;;;;;;;;5073341;28;20487;-88
2023/11/04 07:15:41;;;;;;;4.03;1.23;;;;;;;;;;5072274;28;20505;-89
2023/11/04 07:18:07;;;;;;;2.97;0.47;;;;;;;;;;5073309;28;20440;-87
2023/11/04 07:20:34;;;;;;;2.83;0.40;;;;;;;;;;5073184;28;20417;-87
2023/11/04 07:23:00;;;;;;;2.77;0.60;;;;;;;;;;5072989;28;20484;-88
2023/11/04 07:25:26;;;;;;;4.93;3.30;;;;;;;;;;5072205;28;20449;-87
2023/11/04 07:27:52;;;;;;;3.70;0.60;;;;;;;;;;5071739;28;20985;-89
2023/11/04 07:30:19;;;;;;;11.63;5.57;;;;;;;;;;5072739;28;20500;-88
2023/11/04 07:32:45;;;;;;;5.40;2.30;;;;;;;;;;5071438;28;20432;-88
2023/11/04 07:35:11;;;;;;;3.90;1.87;;;;;;;;;;5071336;28;20463;-87
2023/11/04 07:37:37;;;;;;;8.07;3.40;;;;;;;;;;5071519;28;20448;-87
2023/11/04 07:40:03;;;;;;;11.60;9.90;;;;;;;;;;5071147;28;20433;-87
2023/11/04 07:42:29;;;;;;;3.80;1.63;;;;;;;;;;5071394;28;20487;-90
2023/11/04 07:44:55;;;;;;;3.00;1.60;;;;;;;;;;5071253;28;20413;-88
2023/11/04 07:47:21;;;;;;;6.63;2.93;;;;;;;;;;5072685;28;20921;-88
2023/11/04 07:49:47;;;;;;;2.37;0.70;;;;;;;;;;5071230;28;20499;-88
2023/11/04 07:52:13;;;;;;;1.97;0.50;;;;;;;;;;5072783;28;20505;-87
2023/11/04 07:54:40;;;;;;;3.30;0.63;;;;;;;;;;5071198;28;20410;-86
2023/11/04 07:57:06;;;;;;;1.37;0.67;;;;;;;;;;5071938;28;20397;-86
2023/11/04 07:59:32;;;;;;;5.37;1.67;;;;;;;;;;5072234;28;20789;-85
2023/11/04 08:01:58;;;;;;;6.90;2.83;;;;;;;;;;5072250;28;20466;-87
2023/11/04 08:04:26;;;;;;;4.00;0.90;;;;;;;;;;5071303;28;20428;-89
2023/11/04 08:06:52;;;;;;;4.53;0.67;;;;;;;;;;5070935;28;20514;-84
2023/11/04 08:09:20;;;;;;;4.10;0.50;;;;;;;;;;5072353;28;20491;-85
2023/11/04 08:11:46;;;;;;;1.40;0.40;;;;;;;;;;5075432;28;20407;-86
2023/11/04 08:14:12;;;;;;;1.90;0.60;;;;;;;;;;5075626;28;20476;-87
2023/11/04 08:16:38;;;;;;;1.77;0.73;;;;;;;;;;5074337;28;20417;-88
2023/11/04 08:19:05;;;;;;;1.63;0.30;;;;;;;;;;5075494;28;20427;-87
2023/11/04 08:21:32;;;;;;;2.43;0.30;;;;;;;;;;5075233;28;20418;-86
2023/11/04 08:23:58;;;;;;;4.10;0.63;;;;;;;;;;5075420;28;20481;-86
2023/11/04 08:26:24;;;;;;;4.20;3.43;;;;;;;;;;5073914;28;20416;-85
2023/11/04 08:28:51;;;;;;;1.90;0.60;;;;;;;;;;5075398;28;20512;-85
2023/11/04 08:31:17;;;;;;;2.43;0.50;;;;;;;;;;5074304;28;20946;-87
2023/11/04 08:33:43;;;;;;;3.43;0.70;;;;;;;;;;5075391;28;20414;-87
2023/11/04 08:36:09;;;;;;;1.97;0.40;;;;;;;;;;5075135;28;20506;-85
2023/11/04 08:38:36;;;;;;;2.20;0.43;;;;;;;;;;5074988;28;20442;-87
2023/11/04 08:41:02;;;;;;;2.70;0.73;;;;;;;;;;5074742;28;20446;-84
2023/11/04 08:43:28;;;;;;;1.93;0.30;;;;;;;;;;5075140;28;20506;-85
2023/11/04 08:45:54;;;;;;;1.37;0.20;;;;;;;;;;5074755;28;20517;-88
2023/11/04 08:48:20;;;;;;;6.50;0.90;;;;;;;;;;5075298;28;20256;-85
2023/11/04 08:50:46;;;;;;;2.87;0.40;;;;;;;;;;5074959;28;20557;-84
2023/11/04 08:53:12;;;;;;;1.70;0.30;;;;;;;;;;5075083;28;20426;-88
2023/11/04 08:55:38;;;;;;;1.40;0.40;;;;;;;;;;5074889;28;20408;-86
2023/11/04 08:58:04;;;;;;;1.43;0.30;;;;;;;;;;5075080;28;20413;-85
2023/11/04 09:00:29;;;;;;;1.33;0.23;;;;;;;;;;5074051;28;20416;-87
2023/11/04 09:02:56;;;;;;;1.77;0.50;;;;;;;;;;5073887;28;20481;-86
2023/11/04 09:05:22;;;;;;;3.50;1.13;;;;;;;;;;5074081;28;20803;-85
2023/11/04 09:07:49;;;;;;;3.27;0.60;;;;;;;;;;5073860;28;20419;-86
2023/11/04 09:10:16;;;;;;;2.47;0.67;;;;;;;;;;5073259;28;20827;-84
2023/11/04 09:12:42;;;;;;;4.17;0.50;;;;;;;;;;5074020;28;20796;-84
2023/11/04 09:15:10;;;;;;;2.63;0.23;;;;;;;;;;5073996;28;20512;-86
2023/11/04 09:17:36;;;;;;;2.40;0.37;;;;;;;;;;5073860;28;20473;-92
2023/11/04 09:20:02;;;;;;;3.40;0.50;;;;;;;;;;5075028;28;20506;-88
2023/11/04 09:22:28;;;;;;;1.10;0.37;;;;;;;;;;5074638;28;20202;-84
2023/11/04 09:24:54;;;;;;;4.47;0.50;;;;;;;;;;5074230;28;20410;-86
2023/11/04 09:27:20;;;;;;;1.17;0.30;;;;;;;;;;5074581;28;20907;-86
2023/11/04 09:29:45;;;;;;;1.80;0.70;;;;;;;;;;5073424;28;20528;-85
2023/11/04 09:32:11;;;;;;;2.77;1.07;;;;;;;;;;5073262;28;20933;-87
2023/11/04 09:34:37;;;;;;;3.00;0.50;;;;;;;;;;5074468;28;20408;-86
2023/11/04 09:37:03;;;;;;;2.70;0.30;;;;;;;;;;5074457;28;20175;-86
2023/11/04 09:39:29;;;;;;;3.40;0.20;;;;;;;;;;5073496;28;20415;-88
2023/11/04 09:41:56;;;;;;;2.10;0.27;;;;;;;;;;5073659;28;20434;-86
2023/11/04 09:44:22;;;;;;;1.03;0.30;;;;;;;;;;5073751;28;20433;-87
2023/11/04 09:46:49;;;;;;;2.83;0.60;;;;;;;;;;5073716;28;20420;-87
2023/11/04 09:49:15;;;;;;;1.50;0.20;;;;;;;;;;5073574;28;20891;-88
2023/11/04 09:51:42;;;;;;;2.70;0.30;;;;;;;;;;5073634;28;20399;-86
2023/11/04 09:54:11;;;;;;;1.27;0.20;;;;;;;;;;5073670;28;20496;-86
2023/11/04 09:56:37;;;;;;;1.03;0.40;;;;;;;;;;5072063;28;20446;-87
2023/11/04 09:59:07;;;;;;;2.27;0.63;;;;;;;;;;5072221;28;20399;-87
2023/11/04 10:01:33;;;;;;;1.80;0.30;;;;;;;;;;5073291;28;20779;-87
2023/11/04 10:03:59;;;;;;;4.40;0.20;;;;;;;;;;5073138;28;20459;-84
2023/11/04 10:06:25;;;;;;;2.27;0.40;;;;;;;;;;5073265;28;21107;-86
2023/11/04 10:08:52;;;;;;;2.70;0.30;;;;;;;;;;5073274;28;20425;-84
2023/11/04 10:11:18;;;;;;;2.00;0.33;;;;;;;;;;5072961;28;20410;-87
2023/11/04 10:13:43;;;;;;;3.23;0.40;;;;;;;;;;5073256;28;20899;-88
2023/11/04 10:16:10;;;;;;;1.63;0.23;;;;;;;;;;5073289;28;20934;-85
2023/11/04 10:18:37;;;;;;;1.90;0.40;;;;;;;;;;5073076;28;20418;-87
2023/11/04 10:21:05;;;;;;;1.17;0.47;;;;;;;;;;5071368;28;20504;-86
2023/11/04 10:23:31;;;;;;;1.40;0.27;;;;;;;;;;5072828;28;20506;-87
2023/11/04 10:26:03;;;;;;;2.03;0.20;;;;;;;;;;5072825;28;20431;-87
2023/11/04 10:28:29;;;;;;;1.37;0.40;;;;;;;;;;5072891;28;20680;-86
2023/11/04 10:31:01;;;;;;;2.60;0.20;;;;;;;;;;5073026;28;20415;-87
2023/11/04 10:33:28;;;;;;;2.60;0.53;;;;;;;;;;5070665;28;20502;-87
2023/11/04 10:35:54;;;;;;;1.70;0.20;;;;;;;;;;5071691;28;20951;-86
2023/11/04 10:38:22;;;;;;;2.90;0.40;;;;;;;;;;5072944;28;20805;-84
2023/11/04 10:40:49;;;;;;;0.73;0.20;;;;;;;;;;5072518;28;20461;-86
2023/11/04 10:43:16;;;;;;;1.53;0.20;;;;;;;;;;5071254;28;21020;-87
2023/11/04 10:45:51;;;;;;;5.33;0.40;;;;;;;;;;5072601;28;20414;-86
2023/11/04 10:48:19;;;;;;;0.60;0.20;;;;;;;;;;5071370;28;20748;-86
2023/11/04 10:50:50;;;;;;;1.23;0.20;;;;;;;;;;5072503;28;20412;-84
2023/11/04 10:53:19;;;;;;;1.17;0.20;;;;;;;;;;5069492;28;20419;-87
2023/11/04 10:56:03;;;;;;;0.63;0.20;;;;;;;;;;5072138;28;20436;-88
2023/11/04 10:58:37;;;;;;;1.50;0.30;;;;;;;;;;5072418;28;20415;-87
2023/11/04 11:01:03;;;;;;;1.40;0.43;;;;;;;;;;5072559;28;20417;-88
2023/11/04 11:03:30;;;;;;;0.90;0.30;;;;;;;;;;5072485;28;20511;-88
2023/11/04 11:05:56;;;;;;;1.03;0.20;;;;;;;;;;5073065;28;20408;-89
2023/11/04 11:08:22;;;;;;;1.10;0.20;;;;;;;;;;5071520;28;20419;-85
2023/11/04 11:10:55;;;;;;;3.00;0.30;;;;;;;;;;5072188;28;20495;-86
2023/11/04 11:13:22;;;;;;;3.90;0.30;;;;;;;;;;5072705;28;20420;-86
2023/11/04 11:15:48;;;;;;;1.20;0.30;;;;;;;;;;5071211;28;20978;-87
2023/11/04 11:18:25;;;;;;;0.83;0.20;;;;;;;;;;5072557;28;20422;-90
2023/11/04 11:20:51;;;;;;;0.97;0.20;;;;;;;;;;5069840;28;20401;-87
2023/11/04 11:23:24;;;;;;;0.80;0.47;;;;;;;;;;5072578;28;21027;-88
2023/11/04 11:25:51;;;;;;;1.40;0.20;;;;;;;;;;5072430;28;20404;-86
2023/11/04 11:28:19;;;;;;;2.57;0.30;;;;;;;;;;5072501;28;20414;-89
2023/11/04 11:30:45;;;;;;;1.73;0.30;;;;;;;;;;5072515;28;20405;-88
2023/11/04 11:33:12;;;;;;;2.43;0.20;;;;;;;;;;5072540;28;20511;-85
2023/11/04 11:35:57;;;;;;;0.97;0.30;;;;;;;;;;5072236;28;20407;-84
2023/11/04 11:38:27;;;;;;;1.20;0.20;;;;;;;;;;5070753;28;20461;-87
2023/11/04 11:40:53;;;;;;;1.13;0.20;;;;;;;;;;5071441;28;20440;-85
2023/11/04 11:43:20;;;;;;;0.97;0.20;;;;;;;;;;5070218;28;20469;-85
2023/11/04 11:45:47;;;;;;;2.73;0.20;;;;;;;;;;5069111;28;20444;-82
2023/11/04 11:48:13;;;;;;;1.43;0.20;;;;;;;;;;5075891;28;20408;-83
2023/11/04 11:50:42;;;;;;;0.67;0.20;;;;;;;;;;5070212;28;20509;-83
2023/11/04 11:53:08;;;;;;;1.23;0.20;;;;;;;;;;5073520;28;20406;-82
2023/11/04 11:55:35;;;;;;;1.17;0.20;;;;;;;;;;5075132;28;20800;-86
2023/11/04 11:58:01;;;;;;;1.80;0.23;;;;;;;;;;5075540;28;20495;-86
2023/11/04 12:00:27;;;;;;;1.10;0.20;;;;;;;;;;5074223;28;20422;-85
2023/11/04 12:02:54;;;;;;;2.70;0.20;;;;;;;;;;5075286;28;21025;-86
2023/11/04 12:05:21;;;;;;;0.97;0.20;;;;;;;;;;5073369;28;20179;-83
2023/11/04 12:07:46;;;;;;;2.60;0.20;;;;;;;;;;5073960;28;20890;-85
2023/11/04 12:10:12;;;;;;;1.20;0.20;;;;;;;;;;5075207;28;20438;-85
2023/11/04 12:12:40;;;;;;;0.93;0.20;;;;;;;;;;5072420;28;20412;-84
2023/11/04 12:15:10;;;;;;;0.60;0.20;;;;;;;;;;5055451;28;20423;-83
2023/11/04 12:17:36;;;;;;;1.20;0.20;;;;;;;;;;5055512;28;20428;-82
2023/11/04 12:20:04;;;;;;;0.57;0.20;;;;;;;;;;5055445;28;20415;-83
2023/11/04 12:22:30;;;;;;;0.67;0.20;;;;;;;;;;5055301;28;20208;-85
2023/11/04 12:24:56;;;;;;;0.90;0.20;;;;;;;;;;5054199;28;20443;-87
2023/11/04 12:27:22;;;;;;;0.63;0.20;;;;;;;;;;5054519;28;20822;-83
2023/11/04 12:29:52;;;;;;;0.77;0.20;;;;;;;;;;5054362;28;20483;-84
2023/11/04 12:32:21;;;;;;;2.07;0.40;;;;;;;;;;5054865;28;20466;-85
2023/11/04 12:34:58;;;;;;;1.23;0.20;;;;;;;;;;5055119;28;20405;-89
2023/11/04 12:37:27;;;;;;;1.53;0.20;;;;;;;;;;5055264;28;20445;-84
2023/11/04 12:39:53;;;;;;;1.23;0.30;;;;;;;;;;5054626;28;20442;-86
2023/11/04 12:42:19;;;;;;;0.97;0.20;;;;;;;;;;5053723;28;20832;-84
2023/11/04 12:44:45;;;;;;;0.40;0.20;;;;;;;;;;5053684;28;20470;-83
2023/11/04 12:47:12;;;;;;;1.20;0.30;;;;;;;;;;5054989;28;20415;-84
2023/11/04 12:49:38;;;;;;;0.40;0.20;;;;;;;;;;5053600;28;20487;-84
2023/11/04 12:52:06;;;;;;;3.10;0.63;;;;;;;;;;5054827;28;20449;-84
2023/11/04 12:54:32;;;;;;;3.90;0.50;;;;;;;;;;5052655;28;20427;-85
2023/11/04 12:56:59;;;;;;;0.93;0.20;;;;;;;;;;5054651;28;20826;-84
2023/11/04 12:59:24;;;;;;;0.70;0.20;;;;;;;;;;5054645;28;20408;-86
2023/11/04 13:01:50;;;;;;;0.90;0.30;;;;;;;;;;5054406;28;20459;-83
2023/11/04 13:04:17;;;;;;;5.30;1.50;;;;;;;;;;5056904;28;20975;-84
2023/11/04 13:06:43;;;;;;;1.30;0.20;;;;;;;;;;5064549;28;20442;-87
2023/11/04 13:09:09;;;;;;;1.13;0.20;;;;;;;;;;5072092;28;21146;-84
2023/11/04 13:11:35;;;;;;;0.50;0.20;;;;;;;;;;5072572;28;20427;-83
2023/11/04 13:14:01;;;;;;;0.93;0.47;;;;;;;;;;5073831;28;20412;-84
2023/11/04 13:16:27;;;;;;;1.20;0.20;;;;;;;;;;5073790;28;20422;-83
2023/11/04 13:18:53;;;;;;;0.63;0.20;;;;;;;;;;5074332;28;20481;-83
2023/11/04 13:21:19;;;;;;;1.60;0.20;;;;;;;;;;5074145;28;20415;-85
2023/11/04 13:23:48;;;;;;;1.50;0.30;;;;;;;;;;5073750;28;20520;-85
2023/11/04 13:26:14;;;;;;;0.40;0.20;;;;;;;;;;5072780;28;20778;-85
2023/11/04 13:28:39;;;;;;;1.03;0.20;;;;;;;;;;5073872;28;20511;-85
2023/11/04 13:31:06;;;;;;;1.13;0.20;;;;;;;;;;5071403;28;20434;-87
2023/11/04 13:33:32;;;;;;;1.17;0.30;;;;;;;;;;5073942;28;20165;-83
2023/11/04 13:35:58;;;;;;;1.20;0.20;;;;;;;;;;5073903;28;20411;-85
2023/11/04 13:38:24;;;;;;;0.80;0.20;;;;;;;;;;5073960;28;20180;-85
2023/11/04 13:40:50;;;;;;;1.33;0.20;;;;;;;;;;5073403;28;20407;-85
2023/11/04 13:43:16;;;;;;;0.80;0.40;;;;;;;;;;5068884;28;20476;-84
2023/11/04 13:45:42;;;;;;;0.50;0.20;;;;;;;;;;5070782;28;20414;-85
2023/11/04 13:48:08;;;;;;;0.80;0.10;;;;;;;;;;5072071;28;20432;-85
2023/11/04 13:50:37;;;;;;;0.60;0.20;;;;;;;;;;5073700;28;20410;-86
2023/11/04 13:53:03;;;;;;;2.40;0.30;;;;;;;;;;5073751;28;20781;-85
2023/11/04 13:55:29;;;;;;;0.70;0.20;;;;;;;;;;5073302;28;20411;-84
2023/11/04 13:57:55;;;;;;;0.73;0.20;;;;;;;;;;5073742;28;20185;-84
2023/11/04 14:00:21;;;;;;;1.53;0.10;;;;;;;;;;5073041;28;20675;-82
2023/11/04 14:02:47;;;;;;;0.90;0.20;;;;;;;;;;5071536;28;20482;-84
2023/11/04 14:05:13;;;;;;;0.50;0.20;;;;;;;;;;5073487;28;20414;-83
2023/11/04 14:07:39;;;;;;;0.90;0.20;;;;;;;;;;5071199;28;20418;-83
2023/11/04 14:10:07;;;;;;;1.70;0.20;;;;;;;;;;5071521;28;20517;-85
2023/11/04 14:12:34;;;;;;;0.80;0.30;;;;;;;;;;5066839;28;20186;-84
2023/11/04 14:15:00;;;;;;;0.60;0.20;;;;;;;;;;5070176;28;20919;-84
2023/11/04 14:17:26;;;;;;;0.60;0.20;;;;;;;;;;5071241;28;20427;-84
2023/11/04 14:19:52;;;;;;;0.90;0.20;;;;;;;;;;5071757;28;20167;-84
2023/11/04 14:22:18;;;;;;;0.57;0.20;;;;;;;;;;5070521;28;20460;-85
2023/11/04 14:24:44;;;;;;;2.13;0.30;;;;;;;;;;5071378;28;20783;-85
2023/11/04 14:27:12;;;;;;;0.50;0.20;;;;;;;;;;5072715;28;20877;-82
2023/11/04 14:29:38;;;;;;;0.77;0.20;;;;;;;;;;5072951;28;20418;-84
2023/11/04 14:32:06;;;;;;;1.70;0.20;;;;;;;;;;5071700;28;20415;-86
2023/11/04 14:34:32;;;;;;;3.63;0.30;;;;;;;;;;5072431;28;20441;-84
2023/11/04 14:36:58;;;;;;;0.40;0.20;;;;;;;;;;5073000;28;20450;-84
2023/11/04 14:39:23;;;;;;;1.80;0.83;;;;;;;;;;5072466;28;20178;-84